sensor_id;sensor_type;location;lat;lon;timestamp;noise_LAeq;noise_LA_min;noise_LA_max;noise_LA01;noise_LA95
66454;Laerm;75808;51.436;5.978;2024-02-28T00:00:04;34.91;33.00;37.31;;
66454;Laerm;75808;51.436;5.978;2024-02-28T00:00:15;46.55;33.50;62.67;;
66454;Laerm;75808;51.436;5.978;2024-02-28T00:00:25;35.11;32.74;37.12;;
66454;Laerm;75808;51.436;5.978;2024-02-28T00:00:35;35.53;33.34;37.40;;
66454;Laerm;75808;51.436;5.978;2024-02-28T00:00:46;35.93;33.58;38.01;;
66454;Laerm;75808;51.436;5.978;2024-02-28T00:00:56;39.20;35.45;47.01;;
66454;Laerm;75808;51.436;5.978;2024-02-28T00:01:06;46.60;40.20;50.27;;
66454;Laerm;75808;51.436;5.978;2024-02-28T00:01:16;46.50;43.51;49.40;;
66454;Laerm;75808;51.436;5.978;2024-02-28T00:01:26;47.14;44.18;49.19;;
66454;Laerm;75808;51.436;5.978;2024-02-28T00:01:37;47.01;44.88;48.47;;
66454;Laerm;75808;51.436;5.978;2024-02-28T00:01:50;66.33;46.02;76.22;;
66454;Laerm;75808;51.436;5.978;2024-02-28T00:02:01;72.54;68.48;78.70;;
66454;Laerm;75808;51.436;5.978;2024-02-28T00:02:11;78.26;68.31;84.12;;
66454;Laerm;75808;51.436;5.978;2024-02-28T00:02:21;66.74;47.45;75.83;;
66454;Laerm;75808;51.436;5.978;2024-02-28T00:02:31;46.10;41.54;51.57;;
66454;Laerm;75808;51.436;5.978;2024-02-28T00:02:42;40.00;35.78;43.53;;
66454;Laerm;75808;51.436;5.978;2024-02-28T00:02:52;35.88;34.08;38.67;;
66454;Laerm;75808;51.436;5.978;2024-02-28T00:03:02;34.60;32.76;36.60;;
66454;Laerm;75808;51.436;5.978;2024-02-28T00:03:12;34.43;32.27;36.33;;
66454;Laerm;75808;51.436;5.978;2024-02-28T00:03:23;33.88;31.76;36.63;;
66454;Laerm;75808;51.436;5.978;2024-02-28T00:03:33;33.37;31.46;35.06;;
66454;Laerm;75808;51.436;5.978;2024-02-28T00:03:44;32.97;31.27;37.20;;
66454;Laerm;75808;51.436;5.978;2024-02-28T00:03:54;32.90;31.38;39.37;;
66454;Laerm;75808;51.436;5.978;2024-02-28T00:04:04;32.70;30.89;35.67;;
66454;Laerm;75808;51.436;5.978;2024-02-28T00:04:15;33.18;30.80;35.09;;
66454;Laerm;75808;51.436;5.978;2024-02-28T00:04:25;36.41;32.20;41.67;;
66454;Laerm;75808;51.436;5.978;2024-02-28T00:04:35;39.08;34.38;44.14;;
66454;Laerm;75808;51.436;5.978;2024-02-28T00:04:46;34.04;32.28;36.58;;
66454;Laerm;75808;51.436;5.978;2024-02-28T00:04:57;34.00;32.26;36.06;;
66454;Laerm;75808;51.436;5.978;2024-02-28T00:05:10;34.66;32.22;37.30;;
66454;Laerm;75808;51.436;5.978;2024-02-28T00:05:20;45.09;34.35;54.17;;
66454;Laerm;75808;51.436;5.978;2024-02-28T00:05:31;37.89;32.91;44.27;;
66454;Laerm;75808;51.436;5.978;2024-02-28T00:05:41;36.09;33.34;37.91;;
66454;Laerm;75808;51.436;5.978;2024-02-28T00:05:51;41.90;35.51;45.87;;
66454;Laerm;75808;51.436;5.978;2024-02-28T00:06:02;36.91;33.87;40.50;;
66454;Laerm;75808;51.436;5.978;2024-02-28T00:06:12;36.37;33.84;39.61;;
66454;Laerm;75808;51.436;5.978;2024-02-28T00:06:22;41.79;36.60;45.60;;
66454;Laerm;75808;51.436;5.978;2024-02-28T00:06:32;36.04;33.94;38.47;;
66454;Laerm;75808;51.436;5.978;2024-02-28T00:06:42;35.07;33.48;36.97;;
66454;Laerm;75808;51.436;5.978;2024-02-28T00:06:53;35.32;33.83;37.25;;
66454;Laerm;75808;51.436;5.978;2024-02-28T00:07:03;35.78;33.92;37.83;;
66454;Laerm;75808;51.436;5.978;2024-02-28T00:07:13;35.90;33.39;38.29;;
66454;Laerm;75808;51.436;5.978;2024-02-28T00:07:23;36.00;33.65;38.06;;
66454;Laerm;75808;51.436;5.978;2024-02-28T00:07:33;35.76;33.91;37.76;;
66454;Laerm;75808;51.436;5.978;2024-02-28T00:07:44;35.95;33.95;37.94;;
66454;Laerm;75808;51.436;5.978;2024-02-28T00:07:56;36.29;34.25;38.34;;
66454;Laerm;75808;51.436;5.978;2024-02-28T00:08:06;35.90;34.42;37.67;;
66454;Laerm;75808;51.436;5.978;2024-02-28T00:08:16;36.55;33.95;39.36;;
66454;Laerm;75808;51.436;5.978;2024-02-28T00:08:27;37.22;35.21;39.53;;
66454;Laerm;75808;51.436;5.978;2024-02-28T00:08:37;36.77;34.82;39.52;;
66454;Laerm;75808;51.436;5.978;2024-02-28T00:08:47;37.50;35.72;40.23;;
66454;Laerm;75808;51.436;5.978;2024-02-28T00:08:57;37.97;35.38;40.70;;
66454;Laerm;75808;51.436;5.978;2024-02-28T00:09:08;37.45;35.42;39.62;;
66454;Laerm;75808;51.436;5.978;2024-02-28T00:09:18;37.08;34.52;39.90;;
66454;Laerm;75808;51.436;5.978;2024-02-28T00:09:28;36.67;34.59;38.96;;
66454;Laerm;75808;51.436;5.978;2024-02-28T00:09:39;36.99;34.65;38.98;;
66454;Laerm;75808;51.436;5.978;2024-02-28T00:09:49;37.58;35.78;39.77;;
66454;Laerm;75808;51.436;5.978;2024-02-28T00:09:59;37.28;34.99;39.27;;
66454;Laerm;75808;51.436;5.978;2024-02-28T00:10:09;36.71;34.28;39.11;;
66454;Laerm;75808;51.436;5.978;2024-02-28T00:10:19;35.75;33.65;37.97;;
66454;Laerm;75808;51.436;5.978;2024-02-28T00:10:31;35.41;33.45;37.64;;
66454;Laerm;75808;51.436;5.978;2024-02-28T00:10:41;35.41;33.30;37.01;;
66454;Laerm;75808;51.436;5.978;2024-02-28T00:10:52;34.96;32.79;36.94;;
66454;Laerm;75808;51.436;5.978;2024-02-28T00:11:02;34.95;32.83;36.89;;
66454;Laerm;75808;51.436;5.978;2024-02-28T00:11:12;35.62;33.82;37.84;;
66454;Laerm;75808;51.436;5.978;2024-02-28T00:11:23;34.96;32.84;38.23;;
66454;Laerm;75808;51.436;5.978;2024-02-28T00:11:33;34.70;32.68;36.59;;
66454;Laerm;75808;51.436;5.978;2024-02-28T00:11:43;35.01;32.64;37.22;;
66454;Laerm;75808;51.436;5.978;2024-02-28T00:11:56;35.55;33.32;38.40;;
66454;Laerm;75808;51.436;5.978;2024-02-28T00:12:07;36.49;34.27;39.01;;
66454;Laerm;75808;51.436;5.978;2024-02-28T00:12:17;37.00;34.88;39.10;;
66454;Laerm;75808;51.436;5.978;2024-02-28T00:12:27;37.56;35.20;40.40;;
66454;Laerm;75808;51.436;5.978;2024-02-28T00:12:38;38.05;35.02;40.21;;
66454;Laerm;75808;51.436;5.978;2024-02-28T00:12:48;40.03;37.11;43.79;;
66454;Laerm;75808;51.436;5.978;2024-02-28T00:12:59;44.18;40.03;48.71;;
66454;Laerm;75808;51.436;5.978;2024-02-28T00:13:09;46.92;43.42;50.02;;
66454;Laerm;75808;51.436;5.978;2024-02-28T00:13:19;47.14;44.74;48.89;;
66454;Laerm;75808;51.436;5.978;2024-02-28T00:13:32;46.96;43.59;49.45;;
66454;Laerm;75808;51.436;5.978;2024-02-28T00:13:42;66.24;43.55;76.07;;
66454;Laerm;75808;51.436;5.978;2024-02-28T00:13:52;77.21;73.39;81.80;;
66454;Laerm;75808;51.436;5.978;2024-02-28T00:14:03;66.78;44.18;75.03;;
66454;Laerm;75808;51.436;5.978;2024-02-28T00:14:13;43.29;39.97;48.34;;
66454;Laerm;75808;51.436;5.978;2024-02-28T00:14:23;39.78;36.40;43.26;;
66454;Laerm;75808;51.436;5.978;2024-02-28T00:14:33;37.18;34.48;39.81;;
66454;Laerm;75808;51.436;5.978;2024-02-28T00:14:44;36.07;34.00;38.04;;
66454;Laerm;75808;51.436;5.978;2024-02-28T00:14:54;36.04;33.98;38.09;;
66454;Laerm;75808;51.436;5.978;2024-02-28T00:15:07;36.91;34.83;39.27;;
66454;Laerm;75808;51.436;5.978;2024-02-28T00:15:20;37.97;35.46;40.75;;
66454;Laerm;75808;51.436;5.978;2024-02-28T00:15:30;38.25;35.37;40.42;;
66454;Laerm;75808;51.436;5.978;2024-02-28T00:15:41;39.38;37.11;42.25;;
66454;Laerm;75808;51.436;5.978;2024-02-28T00:15:51;41.89;38.29;47.33;;
66454;Laerm;75808;51.436;5.978;2024-02-28T00:16:02;45.77;41.98;50.81;;
66454;Laerm;75808;51.436;5.978;2024-02-28T00:16:13;47.47;41.93;51.09;;
66454;Laerm;75808;51.436;5.978;2024-02-28T00:16:23;50.05;47.31;52.55;;
66454;Laerm;75808;51.436;5.978;2024-02-28T00:16:33;50.04;46.77;51.92;;
66454;Laerm;75808;51.436;5.978;2024-02-28T00:16:44;47.72;44.72;50.18;;
66454;Laerm;75808;51.436;5.978;2024-02-28T00:16:54;80.67;47.65;88.47;;
66454;Laerm;75808;51.436;5.978;2024-02-28T00:17:05;80.13;56.11;88.55;;
66454;Laerm;75808;51.436;5.978;2024-02-28T00:17:15;52.30;48.56;58.90;;
66454;Laerm;75808;51.436;5.978;2024-02-28T00:17:25;46.36;40.50;50.83;;
66454;Laerm;75808;51.436;5.978;2024-02-28T00:17:38;39.13;36.20;42.49;;
66454;Laerm;75808;51.436;5.978;2024-02-28T00:17:51;36.36;33.51;38.45;;
66454;Laerm;75808;51.436;5.978;2024-02-28T00:18:01;35.54;33.23;38.35;;
66454;Laerm;75808;51.436;5.978;2024-02-28T00:18:13;34.84;32.24;36.82;;
66454;Laerm;75808;51.436;5.978;2024-02-28T00:18:23;34.68;32.97;36.61;;
66454;Laerm;75808;51.436;5.978;2024-02-28T00:18:34;35.34;32.76;39.52;;
66454;Laerm;75808;51.436;5.978;2024-02-28T00:18:44;35.87;33.63;38.77;;
66454;Laerm;75808;51.436;5.978;2024-02-28T00:18:54;34.56;32.52;37.69;;
66454;Laerm;75808;51.436;5.978;2024-02-28T00:19:04;34.06;32.31;36.09;;
66454;Laerm;75808;51.436;5.978;2024-02-28T00:19:14;34.11;32.28;36.71;;
66454;Laerm;75808;51.436;5.978;2024-02-28T00:19:25;34.04;32.07;36.50;;
66454;Laerm;75808;51.436;5.978;2024-02-28T00:19:35;34.78;32.91;37.26;;
66454;Laerm;75808;51.436;5.978;2024-02-28T00:19:45;34.50;32.69;36.86;;
66454;Laerm;75808;51.436;5.978;2024-02-28T00:19:55;34.18;32.16;35.93;;
66454;Laerm;75808;51.436;5.978;2024-02-28T00:20:06;34.39;32.43;37.06;;
66454;Laerm;75808;51.436;5.978;2024-02-28T00:20:16;34.53;32.35;39.34;;
66454;Laerm;75808;51.436;5.978;2024-02-28T00:20:27;34.34;32.25;36.53;;
66454;Laerm;75808;51.436;5.978;2024-02-28T00:20:39;34.24;31.91;36.37;;
66454;Laerm;75808;51.436;5.978;2024-02-28T00:20:49;34.56;32.66;36.08;;
66454;Laerm;75808;51.436;5.978;2024-02-28T00:20:59;35.10;32.73;45.64;;
66454;Laerm;75808;51.436;5.978;2024-02-28T00:21:10;34.88;32.85;39.78;;
66454;Laerm;75808;51.436;5.978;2024-02-28T00:21:20;34.20;32.45;36.60;;
66454;Laerm;75808;51.436;5.978;2024-02-28T00:21:30;33.80;31.91;36.03;;
66454;Laerm;75808;51.436;5.978;2024-02-28T00:21:40;34.68;32.70;36.47;;
66454;Laerm;75808;51.436;5.978;2024-02-28T00:21:51;34.84;32.46;37.34;;
66454;Laerm;75808;51.436;5.978;2024-02-28T00:22:01;35.10;32.67;37.30;;
66454;Laerm;75808;51.436;5.978;2024-02-28T00:22:11;34.80;32.29;36.66;;
66454;Laerm;75808;51.436;5.978;2024-02-28T00:22:21;34.86;33.02;36.88;;
66454;Laerm;75808;51.436;5.978;2024-02-28T00:22:32;34.97;32.99;36.77;;
66454;Laerm;75808;51.436;5.978;2024-02-28T00:22:42;34.48;32.75;36.39;;
66454;Laerm;75808;51.436;5.978;2024-02-28T00:22:54;33.98;32.12;36.11;;
66454;Laerm;75808;51.436;5.978;2024-02-28T00:23:04;33.53;31.83;35.23;;
66454;Laerm;75808;51.436;5.978;2024-02-28T00:23:14;33.27;31.61;35.04;;
66454;Laerm;75808;51.436;5.978;2024-02-28T00:23:24;33.21;31.71;35.00;;
66454;Laerm;75808;51.436;5.978;2024-02-28T00:23:34;33.39;31.60;35.26;;
66454;Laerm;75808;51.436;5.978;2024-02-28T00:23:45;33.01;31.58;34.64;;
66454;Laerm;75808;51.436;5.978;2024-02-28T00:23:55;33.29;31.56;35.78;;
66454;Laerm;75808;51.436;5.978;2024-02-28T00:24:06;33.25;31.02;35.23;;
66454;Laerm;75808;51.436;5.978;2024-02-28T00:24:16;33.86;31.50;36.04;;
66454;Laerm;75808;51.436;5.978;2024-02-28T00:24:26;33.79;31.87;36.15;;
66454;Laerm;75808;51.436;5.978;2024-02-28T00:24:36;33.14;31.18;34.98;;
66454;Laerm;75808;51.436;5.978;2024-02-28T00:24:46;33.28;31.69;35.68;;
66454;Laerm;75808;51.436;5.978;2024-02-28T00:24:57;32.68;30.87;35.21;;
66454;Laerm;75808;51.436;5.978;2024-02-28T00:25:07;32.90;31.06;35.10;;
66454;Laerm;75808;51.436;5.978;2024-02-28T00:25:18;33.06;31.31;34.94;;
66454;Laerm;75808;51.436;5.978;2024-02-28T00:25:28;33.14;31.41;36.45;;
66454;Laerm;75808;51.436;5.978;2024-02-28T00:25:38;33.15;31.04;35.58;;
66454;Laerm;75808;51.436;5.978;2024-02-28T00:25:49;33.68;31.56;36.07;;
66454;Laerm;75808;51.436;5.978;2024-02-28T00:25:59;34.42;32.35;37.35;;
66454;Laerm;75808;51.436;5.978;2024-02-28T00:26:10;34.89;33.16;37.08;;
66454;Laerm;75808;51.436;5.978;2024-02-28T00:26:21;35.84;33.30;37.60;;
66454;Laerm;75808;51.436;5.978;2024-02-28T00:26:31;36.63;34.22;39.17;;
66454;Laerm;75808;51.436;5.978;2024-02-28T00:26:41;38.57;36.01;41.43;;
66454;Laerm;75808;51.436;5.978;2024-02-28T00:26:52;44.06;36.14;49.11;;
66454;Laerm;75808;51.436;5.978;2024-02-28T00:27:02;46.40;42.54;50.47;;
66454;Laerm;75808;51.436;5.978;2024-02-28T00:27:13;45.91;43.39;48.29;;
66454;Laerm;75808;51.436;5.978;2024-02-28T00:27:23;45.42;42.82;47.17;;
66454;Laerm;75808;51.436;5.978;2024-02-28T00:27:33;60.93;43.08;73.85;;
66454;Laerm;75808;51.436;5.978;2024-02-28T00:27:44;74.32;71.83;78.05;;
66454;Laerm;75808;51.436;5.978;2024-02-28T00:27:55;72.42;55.52;75.51;;
66454;Laerm;75808;51.436;5.978;2024-02-28T00:28:06;48.14;40.28;57.85;;
66454;Laerm;75808;51.436;5.978;2024-02-28T00:28:16;39.56;35.42;43.42;;
66454;Laerm;75808;51.436;5.978;2024-02-28T00:28:26;35.31;33.18;37.76;;
66454;Laerm;75808;51.436;5.978;2024-02-28T00:28:36;33.93;32.26;35.79;;
66454;Laerm;75808;51.436;5.978;2024-02-28T00:28:46;34.30;32.66;36.26;;
66454;Laerm;75808;51.436;5.978;2024-02-28T00:28:57;34.03;32.40;35.68;;
66454;Laerm;75808;51.436;5.978;2024-02-28T00:29:07;33.68;32.22;35.66;;
66454;Laerm;75808;51.436;5.978;2024-02-28T00:29:17;33.84;32.20;35.90;;
66454;Laerm;75808;51.436;5.978;2024-02-28T00:29:27;33.34;31.37;35.72;;
66454;Laerm;75808;51.436;5.978;2024-02-28T00:29:38;32.99;31.39;37.96;;
66454;Laerm;75808;51.436;5.978;2024-02-28T00:29:48;32.93;31.16;34.49;;
66454;Laerm;75808;51.436;5.978;2024-02-28T00:29:58;33.21;31.27;34.84;;
66454;Laerm;75808;51.436;5.978;2024-02-28T00:30:08;33.38;31.87;35.20;;
66454;Laerm;75808;51.436;5.978;2024-02-28T00:30:19;33.11;31.65;34.89;;
66454;Laerm;75808;51.436;5.978;2024-02-28T00:30:29;33.15;31.23;34.62;;
66454;Laerm;75808;51.436;5.978;2024-02-28T00:30:39;33.26;31.52;34.70;;
66454;Laerm;75808;51.436;5.978;2024-02-28T00:30:51;33.08;30.80;34.71;;
66454;Laerm;75808;51.436;5.978;2024-02-28T00:31:01;32.98;31.11;34.55;;
66454;Laerm;75808;51.436;5.978;2024-02-28T00:31:11;32.56;31.14;34.21;;
66454;Laerm;75808;51.436;5.978;2024-02-28T00:31:21;45.99;31.00;61.18;;
66454;Laerm;75808;51.436;5.978;2024-02-28T00:31:32;41.12;30.58;48.57;;
66454;Laerm;75808;51.436;5.978;2024-02-28T00:31:42;46.43;42.12;50.07;;
66454;Laerm;75808;51.436;5.978;2024-02-28T00:31:52;44.30;41.66;45.70;;
66454;Laerm;75808;51.436;5.978;2024-02-28T00:32:02;44.25;41.28;45.67;;
66454;Laerm;75808;51.436;5.978;2024-02-28T00:32:12;44.51;41.65;46.11;;
66454;Laerm;75808;51.436;5.978;2024-02-28T00:32:23;44.40;41.52;45.98;;
66454;Laerm;75808;51.436;5.978;2024-02-28T00:32:33;72.72;42.69;81.57;;
66454;Laerm;75808;51.436;5.978;2024-02-28T00:32:43;73.75;69.83;78.67;;
66454;Laerm;75808;51.436;5.978;2024-02-28T00:32:54;74.25;69.98;79.23;;
66454;Laerm;75808;51.436;5.978;2024-02-28T00:33:04;60.07;44.05;72.77;;
66454;Laerm;75808;51.436;5.978;2024-02-28T00:33:14;45.06;43.03;47.50;;
66454;Laerm;75808;51.436;5.978;2024-02-28T00:33:24;45.03;42.77;48.66;;
66454;Laerm;75808;51.436;5.978;2024-02-28T00:33:35;43.49;41.15;45.63;;
66454;Laerm;75808;51.436;5.978;2024-02-28T00:33:45;41.72;39.18;47.59;;
66454;Laerm;75808;51.436;5.978;2024-02-28T00:33:55;40.70;37.98;43.79;;
66454;Laerm;75808;51.436;5.978;2024-02-28T00:34:05;38.35;35.02;42.35;;
66454;Laerm;75808;51.436;5.978;2024-02-28T00:34:18;35.31;33.64;37.14;;
66454;Laerm;75808;51.436;5.978;2024-02-28T00:34:28;34.61;32.01;36.91;;
66454;Laerm;75808;51.436;5.978;2024-02-28T00:34:39;32.98;31.28;34.58;;
66454;Laerm;75808;51.436;5.978;2024-02-28T00:34:49;32.79;30.85;34.49;;
66454;Laerm;75808;51.436;5.978;2024-02-28T00:34:59;32.67;30.83;34.63;;
66454;Laerm;75808;51.436;5.978;2024-02-28T00:35:09;32.65;31.13;34.47;;
66454;Laerm;75808;51.436;5.978;2024-02-28T00:35:20;32.53;31.06;34.26;;
66454;Laerm;75808;51.436;5.978;2024-02-28T00:35:31;32.62;31.04;34.88;;
66454;Laerm;75808;51.436;5.978;2024-02-28T00:35:42;32.43;30.43;35.40;;
66454;Laerm;75808;51.436;5.978;2024-02-28T00:35:53;32.10;30.40;33.56;;
66454;Laerm;75808;51.436;5.978;2024-02-28T00:36:03;32.01;30.32;33.58;;
66454;Laerm;75808;51.436;5.978;2024-02-28T00:36:14;32.04;30.84;33.50;;
66454;Laerm;75808;51.436;5.978;2024-02-28T00:36:27;32.24;30.41;33.85;;
66454;Laerm;75808;51.436;5.978;2024-02-28T00:36:37;32.38;30.87;33.73;;
66454;Laerm;75808;51.436;5.978;2024-02-28T00:36:48;32.37;30.82;35.34;;
66454;Laerm;75808;51.436;5.978;2024-02-28T00:36:58;32.33;30.93;34.15;;
66454;Laerm;75808;51.436;5.978;2024-02-28T00:37:08;32.71;31.40;34.45;;
66454;Laerm;75808;51.436;5.978;2024-02-28T00:37:18;33.30;30.91;34.97;;
66454;Laerm;75808;51.436;5.978;2024-02-28T00:37:28;33.70;31.84;35.10;;
66454;Laerm;75808;51.436;5.978;2024-02-28T00:37:39;34.14;32.39;36.19;;
66454;Laerm;75808;51.436;5.978;2024-02-28T00:37:49;33.85;32.05;37.39;;
66454;Laerm;75808;51.436;5.978;2024-02-28T00:37:59;33.54;31.86;35.66;;
66454;Laerm;75808;51.436;5.978;2024-02-28T00:38:10;33.00;31.29;35.13;;
66454;Laerm;75808;51.436;5.978;2024-02-28T00:38:20;32.99;31.28;34.74;;
66454;Laerm;75808;51.436;5.978;2024-02-28T00:38:30;33.00;31.48;34.39;;
66454;Laerm;75808;51.436;5.978;2024-02-28T00:38:41;33.00;31.06;35.03;;
66454;Laerm;75808;51.436;5.978;2024-02-28T00:38:51;33.36;31.55;35.52;;
66454;Laerm;75808;51.436;5.978;2024-02-28T00:39:01;32.80;31.09;35.09;;
66454;Laerm;75808;51.436;5.978;2024-02-28T00:39:12;32.63;31.25;34.53;;
66454;Laerm;75808;51.436;5.978;2024-02-28T00:39:22;32.81;31.43;34.37;;
66454;Laerm;75808;51.436;5.978;2024-02-28T00:39:32;33.37;31.56;34.96;;
66454;Laerm;75808;51.436;5.978;2024-02-28T00:39:43;34.04;32.06;36.30;;
66454;Laerm;75808;51.436;5.978;2024-02-28T00:39:53;34.65;32.42;36.94;;
66454;Laerm;75808;51.436;5.978;2024-02-28T00:40:04;34.89;33.07;37.39;;
66454;Laerm;75808;51.436;5.978;2024-02-28T00:40:14;34.35;31.71;35.97;;
66454;Laerm;75808;51.436;5.978;2024-02-28T00:40:24;33.57;31.21;36.62;;
66454;Laerm;75808;51.436;5.978;2024-02-28T00:40:35;33.11;30.80;36.81;;
66454;Laerm;75808;51.436;5.978;2024-02-28T00:40:45;33.55;31.80;35.70;;
66454;Laerm;75808;51.436;5.978;2024-02-28T00:40:56;33.78;32.59;35.55;;
66454;Laerm;75808;51.436;5.978;2024-02-28T00:41:06;33.58;31.95;35.44;;
66454;Laerm;75808;51.436;5.978;2024-02-28T00:41:16;33.56;31.68;35.27;;
66454;Laerm;75808;51.436;5.978;2024-02-28T00:41:26;33.67;31.86;35.70;;
66454;Laerm;75808;51.436;5.978;2024-02-28T00:41:37;32.86;31.33;34.58;;
66454;Laerm;75808;51.436;5.978;2024-02-28T00:41:47;32.50;30.91;34.04;;
66454;Laerm;75808;51.436;5.978;2024-02-28T00:41:57;33.10;31.39;34.61;;
66454;Laerm;75808;51.436;5.978;2024-02-28T00:42:08;33.62;31.90;35.45;;
66454;Laerm;75808;51.436;5.978;2024-02-28T00:42:18;33.78;32.22;35.50;;
66454;Laerm;75808;51.436;5.978;2024-02-28T00:42:28;33.38;31.64;35.28;;
66454;Laerm;75808;51.436;5.978;2024-02-28T00:42:38;33.59;32.12;35.86;;
66454;Laerm;75808;51.436;5.978;2024-02-28T00:42:48;33.69;32.00;35.44;;
66454;Laerm;75808;51.436;5.978;2024-02-28T00:42:59;33.96;32.21;35.77;;
66454;Laerm;75808;51.436;5.978;2024-02-28T00:43:09;35.36;32.75;37.52;;
66454;Laerm;75808;51.436;5.978;2024-02-28T00:43:19;36.07;33.74;37.70;;
66454;Laerm;75808;51.436;5.978;2024-02-28T00:43:29;34.56;32.71;36.83;;
66454;Laerm;75808;51.436;5.978;2024-02-28T00:43:39;33.97;32.15;35.78;;
66454;Laerm;75808;51.436;5.978;2024-02-28T00:43:50;34.16;32.47;35.99;;
66454;Laerm;75808;51.436;5.978;2024-02-28T00:44:01;33.39;31.85;35.20;;
66454;Laerm;75808;51.436;5.978;2024-02-28T00:44:12;33.53;31.61;35.66;;
66454;Laerm;75808;51.436;5.978;2024-02-28T00:44:22;33.32;31.61;35.26;;
66454;Laerm;75808;51.436;5.978;2024-02-28T00:44:32;33.38;31.78;35.16;;
66454;Laerm;75808;51.436;5.978;2024-02-28T00:44:43;33.07;31.12;35.00;;
66454;Laerm;75808;51.436;5.978;2024-02-28T00:44:53;33.47;31.85;35.43;;
66454;Laerm;75808;51.436;5.978;2024-02-28T00:45:04;33.27;31.38;35.16;;
66454;Laerm;75808;51.436;5.978;2024-02-28T00:45:14;32.87;31.35;35.14;;
66454;Laerm;75808;51.436;5.978;2024-02-28T00:45:24;32.88;31.56;34.43;;
66454;Laerm;75808;51.436;5.978;2024-02-28T00:45:34;32.61;30.62;35.19;;
66454;Laerm;75808;51.436;5.978;2024-02-28T00:45:45;32.77;30.99;34.07;;
66454;Laerm;75808;51.436;5.978;2024-02-28T00:45:55;33.13;31.23;35.61;;
66454;Laerm;75808;51.436;5.978;2024-02-28T00:46:08;33.18;31.46;35.27;;
66454;Laerm;75808;51.436;5.978;2024-02-28T00:46:24;43.32;31.77;49.52;;
66454;Laerm;75808;51.436;5.978;2024-02-28T00:46:34;46.25;41.41;51.02;;
66454;Laerm;75808;51.436;5.978;2024-02-28T00:46:44;45.53;41.93;47.41;;
66454;Laerm;75808;51.436;5.978;2024-02-28T00:46:55;46.27;42.48;48.12;;
66454;Laerm;75808;51.436;5.978;2024-02-28T00:47:05;46.79;43.14;49.11;;
66454;Laerm;75808;51.436;5.978;2024-02-28T00:47:15;72.43;45.23;79.14;;
66454;Laerm;75808;51.436;5.978;2024-02-28T00:47:25;75.88;71.93;79.75;;
66454;Laerm;75808;51.436;5.978;2024-02-28T00:47:36;75.35;56.87;82.35;;
66454;Laerm;75808;51.436;5.978;2024-02-28T00:47:47;51.43;45.12;58.84;;
66454;Laerm;75808;51.436;5.978;2024-02-28T00:47:58;47.98;44.78;52.95;;
66454;Laerm;75808;51.436;5.978;2024-02-28T00:48:08;47.81;43.50;50.82;;
66454;Laerm;75808;51.436;5.978;2024-02-28T00:48:18;43.21;39.42;47.53;;
66454;Laerm;75808;51.436;5.978;2024-02-28T00:48:28;41.12;39.09;43.07;;
66454;Laerm;75808;51.436;5.978;2024-02-28T00:48:41;40.33;38.18;42.72;;
66454;Laerm;75808;51.436;5.978;2024-02-28T00:48:51;38.18;33.85;41.67;;
66454;Laerm;75808;51.436;5.978;2024-02-28T00:49:01;35.87;34.11;38.68;;
66454;Laerm;75808;51.436;5.978;2024-02-28T00:49:12;35.82;33.29;37.47;;
66454;Laerm;75808;51.436;5.978;2024-02-28T00:49:22;35.76;33.60;37.78;;
66454;Laerm;75808;51.436;5.978;2024-02-28T00:49:32;35.58;33.48;37.75;;
66454;Laerm;75808;51.436;5.978;2024-02-28T00:49:42;35.30;33.59;37.65;;
66454;Laerm;75808;51.436;5.978;2024-02-28T00:49:53;35.57;34.04;37.44;;
66454;Laerm;75808;51.436;5.978;2024-02-28T00:50:03;35.70;33.77;38.02;;
66454;Laerm;75808;51.436;5.978;2024-02-28T00:50:14;35.13;33.13;37.14;;
66454;Laerm;75808;51.436;5.978;2024-02-28T00:50:24;34.72;32.46;36.48;;
66454;Laerm;75808;51.436;5.978;2024-02-28T00:50:34;34.66;32.54;36.33;;
66454;Laerm;75808;51.436;5.978;2024-02-28T00:50:44;34.67;32.82;36.69;;
66454;Laerm;75808;51.436;5.978;2024-02-28T00:50:55;34.73;32.59;36.99;;
66454;Laerm;75808;51.436;5.978;2024-02-28T00:51:05;34.60;32.48;36.60;;
66454;Laerm;75808;51.436;5.978;2024-02-28T00:51:15;34.88;32.56;37.06;;
66454;Laerm;75808;51.436;5.978;2024-02-28T00:51:25;34.67;32.17;37.01;;
66454;Laerm;75808;51.436;5.978;2024-02-28T00:51:36;34.85;32.47;37.22;;
66454;Laerm;75808;51.436;5.978;2024-02-28T00:51:47;34.99;32.79;37.63;;
66454;Laerm;75808;51.436;5.978;2024-02-28T00:51:57;35.10;33.17;37.76;;
66454;Laerm;75808;51.436;5.978;2024-02-28T00:52:07;35.35;33.36;37.30;;
66454;Laerm;75808;51.436;5.978;2024-02-28T00:52:18;36.10;34.22;38.08;;
66454;Laerm;75808;51.436;5.978;2024-02-28T00:52:28;35.34;33.44;37.30;;
66454;Laerm;75808;51.436;5.978;2024-02-28T00:52:38;35.10;32.89;37.09;;
66454;Laerm;75808;51.436;5.978;2024-02-28T00:52:49;34.76;32.74;36.40;;
66454;Laerm;75808;51.436;5.978;2024-02-28T00:52:59;35.34;33.16;37.33;;
66454;Laerm;75808;51.436;5.978;2024-02-28T00:53:09;36.11;34.05;37.86;;
66454;Laerm;75808;51.436;5.978;2024-02-28T00:53:19;36.74;34.58;38.28;;
66454;Laerm;75808;51.436;5.978;2024-02-28T00:53:30;35.82;33.69;37.44;;
66454;Laerm;75808;51.436;5.978;2024-02-28T00:53:40;36.61;33.69;42.28;;
66454;Laerm;75808;51.436;5.978;2024-02-28T00:53:51;39.12;34.57;45.45;;
66454;Laerm;75808;51.436;5.978;2024-02-28T00:54:01;40.07;36.40;46.18;;
66454;Laerm;75808;51.436;5.978;2024-02-28T00:54:11;38.18;35.89;40.56;;
66454;Laerm;75808;51.436;5.978;2024-02-28T00:54:22;37.94;35.26;40.06;;
66454;Laerm;75808;51.436;5.978;2024-02-28T00:54:33;38.11;35.89;40.80;;
66454;Laerm;75808;51.436;5.978;2024-02-28T00:54:44;38.01;35.95;40.20;;
66454;Laerm;75808;51.436;5.978;2024-02-28T00:54:54;38.46;35.93;40.80;;
66454;Laerm;75808;51.436;5.978;2024-02-28T00:55:04;38.00;35.27;40.95;;
66454;Laerm;75808;51.436;5.978;2024-02-28T00:55:15;37.13;34.74;39.01;;
66454;Laerm;75808;51.436;5.978;2024-02-28T00:55:25;38.66;35.84;40.78;;
66454;Laerm;75808;51.436;5.978;2024-02-28T00:55:35;39.06;36.17;40.97;;
66454;Laerm;75808;51.436;5.978;2024-02-28T00:55:45;39.67;37.09;41.64;;
66454;Laerm;75808;51.436;5.978;2024-02-28T00:55:55;38.92;37.21;41.14;;
66454;Laerm;75808;51.436;5.978;2024-02-28T00:56:06;39.16;37.27;41.39;;
66454;Laerm;75808;51.436;5.978;2024-02-28T00:56:16;39.05;36.93;41.02;;
66454;Laerm;75808;51.436;5.978;2024-02-28T00:56:27;38.11;35.95;39.98;;
66454;Laerm;75808;51.436;5.978;2024-02-28T00:56:37;38.90;35.63;41.53;;
66454;Laerm;75808;51.436;5.978;2024-02-28T00:56:47;39.73;37.03;42.16;;
66454;Laerm;75808;51.436;5.978;2024-02-28T00:56:58;39.22;36.97;42.02;;
66454;Laerm;75808;51.436;5.978;2024-02-28T00:57:08;39.27;37.30;41.31;;
66454;Laerm;75808;51.436;5.978;2024-02-28T00:57:18;38.07;35.05;40.57;;
66454;Laerm;75808;51.436;5.978;2024-02-28T00:57:28;37.53;35.56;39.51;;
66454;Laerm;75808;51.436;5.978;2024-02-28T00:57:39;37.77;35.63;39.65;;
66454;Laerm;75808;51.436;5.978;2024-02-28T00:57:49;37.95;35.66;39.90;;
66454;Laerm;75808;51.436;5.978;2024-02-28T00:57:59;38.28;35.92;40.91;;
66454;Laerm;75808;51.436;5.978;2024-02-28T00:58:10;38.24;35.41;41.18;;
66454;Laerm;75808;51.436;5.978;2024-02-28T00:58:20;38.72;36.21;40.98;;
66454;Laerm;75808;51.436;5.978;2024-02-28T00:58:30;38.96;36.33;41.94;;